createdAt,value
2019-06-23T00:00:43.833Z,17.60
2019-06-23T00:03:13.847Z,20.87
2019-06-23T00:05:43.643Z,21.10
2019-06-23T00:08:13.448Z,21.80
2019-06-23T00:10:43.285Z,19.20
2019-06-23T00:13:12.975Z,20.07
2019-06-23T00:15:43.229Z,20.83
2019-06-23T00:18:13.144Z,20.67
2019-06-23T00:20:42.893Z,26.70
2019-06-23T00:23:12.531Z,19.73
2019-06-23T00:25:42.464Z,18.53
2019-06-23T00:28:12.284Z,19.07
2019-06-23T00:30:45.510Z,19.50
2019-06-23T00:33:15.524Z,19.37
2019-06-23T00:35:45.420Z,17.33
2019-06-23T00:38:15.232Z,18.80
2019-06-23T00:41:04.437Z,16.27
2019-06-23T00:43:34.084Z,16.27
2019-06-23T00:46:03.826Z,13.13
2019-06-23T00:48:33.578Z,14.23
2019-06-23T00:51:03.455Z,13.13
2019-06-23T00:53:33.113Z,15.57
2019-06-23T00:56:03.209Z,14.40
2019-06-23T00:58:32.904Z,85.20
2019-06-23T01:01:04.588Z,63.13
2019-06-23T01:03:34.318Z,15.27
2019-06-23T01:06:04.136Z,13.93
2019-06-23T01:08:33.955Z,14.90
2019-06-23T01:11:03.768Z,15.00
2019-06-23T01:13:33.480Z,15.77
2019-06-23T01:16:05.386Z,15.47
2019-06-23T01:18:35.620Z,15.40
2019-06-23T01:21:05.426Z,15.93
2019-06-23T01:23:35.146Z,15.03
2019-06-23T01:26:04.954Z,14.70
2019-06-23T01:28:34.620Z,17.73
2019-06-23T01:31:04.444Z,16.20
2019-06-23T01:33:34.082Z,15.50
2019-06-23T01:36:03.783Z,15.60
2019-06-23T01:38:33.484Z,17.27
2019-06-23T01:41:03.188Z,17.93
2019-06-23T01:43:32.891Z,17.50
2019-06-23T01:46:02.540Z,20.70
2019-06-23T01:48:32.414Z,18.60
2019-06-23T01:51:02.126Z,19.80
2019-06-23T01:53:31.895Z,20.33
2019-06-23T01:56:01.627Z,22.43
2019-06-23T01:58:31.249Z,22.37
2019-06-23T02:01:00.896Z,26.57
2019-06-23T02:03:30.501Z,23.90
2019-06-23T02:06:00.212Z,29.90
2019-06-23T02:08:30.087Z,27.47
2019-06-23T02:10:59.798Z,26.60
2019-06-23T02:13:29.427Z,28.07
2019-06-23T02:15:59.159Z,32.73
2019-06-23T02:18:28.812Z,37.07
2019-06-23T02:21:00.359Z,32.13
2019-06-23T02:23:30.150Z,37.63
2019-06-23T02:25:59.851Z,30.30
2019-06-23T02:28:29.819Z,32.90
2019-06-23T02:30:59.530Z,22.90
2019-06-23T02:33:29.727Z,20.70
2019-06-23T02:35:59.498Z,19.07
2019-06-23T02:38:29.193Z,20.23
2019-06-23T02:40:59.078Z,18.60
2019-06-23T02:43:29.136Z,20.00
2019-06-23T02:46:03.328Z,20.80
2019-06-23T02:48:36.536Z,22.30
2019-06-23T02:51:23.593Z,17.73
2019-06-23T02:54:12.725Z,18.20
2019-06-23T02:56:47.176Z,16.70
2019-06-23T02:59:16.902Z,18.70
2019-06-23T03:01:46.686Z,16.80
2019-06-23T03:04:16.414Z,16.10
2019-06-23T03:06:46.374Z,17.57
2019-06-23T03:09:15.995Z,17.40
2019-06-23T03:11:45.744Z,16.67
2019-06-23T03:14:15.372Z,18.93
2019-06-23T03:16:45.080Z,16.63
2019-06-23T03:19:33.899Z,16.00
2019-06-23T03:22:03.851Z,17.63
2019-06-23T03:24:33.579Z,20.13
2019-06-23T03:27:03.295Z,15.17
2019-06-23T03:29:32.982Z,18.63
2019-06-23T03:32:02.869Z,18.57
2019-06-23T03:34:32.641Z,17.60
2019-06-23T03:37:03.639Z,16.43
2019-06-23T03:39:33.583Z,14.00
2019-06-23T03:42:03.640Z,12.03
2019-06-23T03:44:33.420Z,16.80
2019-06-23T03:47:03.210Z,13.37
2019-06-23T03:49:32.988Z,13.20
2019-06-23T03:52:02.633Z,12.70
2019-06-23T03:54:32.337Z,11.60
2019-06-23T03:57:02.004Z,12.93
2019-06-23T03:59:31.876Z,12.17
2019-06-23T04:02:01.718Z,10.97
2019-06-23T04:04:31.355Z,12.20
2019-06-23T04:07:01.076Z,12.63
2019-06-23T04:09:30.724Z,13.33
2019-06-23T04:12:00.347Z,12.63
2019-06-23T04:14:29.963Z,14.50
2019-06-23T04:16:59.710Z,12.60
2019-06-23T04:19:29.331Z,13.43
2019-06-23T04:21:59.113Z,11.25
2019-06-23T04:24:28.799Z,10.30
2019-06-23T04:26:58.631Z,10.03
2019-06-23T04:29:28.393Z,10.10
2019-06-23T04:31:58.210Z,9.60
2019-06-23T04:34:28.113Z,10.30
2019-06-23T04:36:57.916Z,9.73
2019-06-23T04:39:27.933Z,9.43
2019-06-23T04:41:57.612Z,9.07
2019-06-23T04:44:27.369Z,9.10
2019-06-23T04:46:56.996Z,9.33
2019-06-23T04:49:26.879Z,9.80
2019-06-23T04:51:56.591Z,8.07
2019-06-23T04:54:26.605Z,7.90
2019-06-23T04:56:56.770Z,8.40
2019-06-23T04:59:45.588Z,7.23
2019-06-23T05:02:16.802Z,8.13
2019-06-23T05:04:46.714Z,7.13
2019-06-23T05:07:17.197Z,7.57
2019-06-23T05:09:46.811Z,7.23
2019-06-23T05:12:16.445Z,7.43
2019-06-23T05:14:46.141Z,6.30
2019-06-23T05:17:15.929Z,5.17
2019-06-23T05:19:45.556Z,5.30
2019-06-23T05:22:15.529Z,5.33
2019-06-23T05:24:45.152Z,5.00
2019-06-23T05:27:15.361Z,5.10
2019-06-23T05:30:05.756Z,5.10
2019-06-23T05:32:35.834Z,7.27
2019-06-23T05:35:07.284Z,4.40
2019-06-23T05:37:37.252Z,5.37
2019-06-23T05:40:07.131Z,5.13
2019-06-23T05:42:55.959Z,6.50
2019-06-23T05:45:25.740Z,6.30
2019-06-23T05:47:55.395Z,7.87
2019-06-23T05:50:25.085Z,7.80
2019-06-23T05:52:54.766Z,12.93
2019-06-23T05:55:24.467Z,9.40
2019-06-23T05:57:54.096Z,11.63
2019-06-23T06:00:23.799Z,10.93
2019-06-23T06:02:53.492Z,9.57
2019-06-23T06:05:23.243Z,8.63
2019-06-23T06:07:53.211Z,9.67
2019-06-23T06:10:22.835Z,8.90
2019-06-23T06:12:52.648Z,9.23
2019-06-23T06:15:22.284Z,8.90
2019-06-23T06:17:52.063Z,8.83
2019-06-23T06:20:21.748Z,8.23
2019-06-23T06:23:10.675Z,8.37
2019-06-23T06:25:40.366Z,8.50
2019-06-23T06:28:12.552Z,8.07
2019-06-23T06:30:42.459Z,9.20
2019-06-23T06:33:12.296Z,12.10
2019-06-23T06:35:41.975Z,13.00
2019-06-23T06:38:11.798Z,11.40
2019-06-23T06:40:42.618Z,9.80
2019-06-23T06:43:12.374Z,10.93
2019-06-23T06:45:42.170Z,10.27
2019-06-23T06:48:11.969Z,9.67
2019-06-23T06:50:41.685Z,11.60
2019-06-23T06:53:11.475Z,13.73
2019-06-23T06:55:41.326Z,10.97
2019-06-23T06:58:10.990Z,12.00
2019-06-23T07:00:40.696Z,11.63
2019-06-23T07:03:10.376Z,10.90
2019-06-23T07:05:40.135Z,10.40
2019-06-23T07:08:10.123Z,10.13
2019-06-23T07:10:40.161Z,10.23
2019-06-23T07:13:10.025Z,9.73
2019-06-23T07:15:39.651Z,9.10
2019-06-23T07:18:09.376Z,10.03
2019-06-23T07:20:39.063Z,10.50
2019-06-23T07:23:08.721Z,9.73
2019-06-23T07:25:38.427Z,9.00
2019-06-23T07:28:08.131Z,10.93
2019-06-23T07:31:19.564Z,8.60
2019-06-23T07:33:49.269Z,9.50
2019-06-23T07:36:18.977Z,9.83
2019-06-23T07:38:48.794Z,9.27
2019-06-23T07:41:18.453Z,8.80
2019-06-23T07:43:48.196Z,9.17
2019-06-23T07:46:17.997Z,7.83
2019-06-23T07:48:47.748Z,9.00
2019-06-23T07:51:17.500Z,9.03
2019-06-23T07:53:47.139Z,9.07
2019-06-23T07:56:16.936Z,7.63
2019-06-23T07:58:46.548Z,9.07
2019-06-23T08:01:16.627Z,7.93
2019-06-23T08:03:46.381Z,8.43
2019-06-23T08:06:16.829Z,8.10
2019-06-23T08:08:46.877Z,7.70
2019-06-23T08:11:16.963Z,7.60
2019-06-23T08:13:46.751Z,7.10
2019-06-23T08:16:16.539Z,6.57
2019-06-23T08:18:46.292Z,6.90
2019-06-23T08:21:16.006Z,6.40
2019-06-23T08:23:45.787Z,5.70
2019-06-23T08:26:15.484Z,5.23
2019-06-23T08:28:45.119Z,5.50
2019-06-23T08:31:14.873Z,5.53
2019-06-23T08:33:44.619Z,5.63
2019-06-23T08:36:14.315Z,6.97
2019-06-23T08:38:44.248Z,6.07
2019-06-23T08:41:14.014Z,6.30
2019-06-23T08:43:43.749Z,5.90
2019-06-23T08:46:13.409Z,6.83
2019-06-23T08:48:43.280Z,8.00
2019-06-23T08:51:12.966Z,8.60
2019-06-23T08:53:42.687Z,11.53
2019-06-23T08:56:12.561Z,9.83
2019-06-23T08:59:01.418Z,7.07
2019-06-23T09:01:31.101Z,8.97
2019-06-23T09:04:00.743Z,9.70
2019-06-23T09:06:30.546Z,8.93
2019-06-23T09:09:00.571Z,9.17
2019-06-23T09:11:30.345Z,8.53
2019-06-23T09:14:00.196Z,7.97
2019-06-23T09:16:29.931Z,8.07
2019-06-23T09:18:59.641Z,7.60
2019-06-23T09:21:29.439Z,7.07
2019-06-23T09:23:59.263Z,8.33
2019-06-23T09:26:29.133Z,8.37
2019-06-23T09:28:58.960Z,8.57
2019-06-23T09:31:28.796Z,7.87
2019-06-23T09:33:58.619Z,7.87
2019-06-23T09:36:28.395Z,8.97
2019-06-23T09:38:58.069Z,7.87
2019-06-23T09:41:27.957Z,8.60
2019-06-23T09:44:05.254Z,12.40
2019-06-23T09:46:34.998Z,6.57
2019-06-23T09:49:04.746Z,7.37
2019-06-23T09:51:34.464Z,8.60
2019-06-23T09:54:04.312Z,6.90
2019-06-23T09:56:34.042Z,8.00
2019-06-23T09:59:04.020Z,7.70
2019-06-23T10:01:33.806Z,7.40
2019-06-23T10:04:03.596Z,6.40
2019-06-23T10:06:33.394Z,6.30
2019-06-23T10:09:04.848Z,7.60
2019-06-23T10:11:34.784Z,6.33
2019-06-23T10:14:04.556Z,6.37
2019-06-23T10:16:34.363Z,8.10
2019-06-23T10:19:04.151Z,6.43
2019-06-23T10:21:33.899Z,6.93
2019-06-23T10:24:03.668Z,6.37
2019-06-23T10:26:33.456Z,7.33
2019-06-23T10:29:03.160Z,7.40
2019-06-23T10:31:32.979Z,7.23
2019-06-23T10:34:02.715Z,6.30
2019-06-23T10:36:32.356Z,6.03
2019-06-23T10:39:02.095Z,6.07
2019-06-23T10:41:31.860Z,6.73
2019-06-23T10:44:01.561Z,6.30
2019-06-23T10:46:31.364Z,5.50
2019-06-23T10:49:00.980Z,6.43
2019-06-23T10:51:30.812Z,6.00
2019-06-23T10:54:00.516Z,6.43
2019-06-23T10:56:30.574Z,6.10
2019-06-23T10:59:00.362Z,6.70
2019-06-23T11:01:30.128Z,6.00
2019-06-23T11:03:59.743Z,5.97
2019-06-23T11:06:29.494Z,5.73
2019-06-23T11:08:59.135Z,6.90
2019-06-23T11:11:28.883Z,6.87
2019-06-23T11:13:58.648Z,6.57
2019-06-23T11:16:28.376Z,7.07
2019-06-23T11:18:58.196Z,6.80
2019-06-23T11:21:27.859Z,7.50
2019-06-23T11:23:57.848Z,9.87
2019-06-23T11:26:27.797Z,8.70
2019-06-23T11:28:57.519Z,7.23
2019-06-23T11:31:27.164Z,6.00
2019-06-23T11:33:57.153Z,7.07
2019-06-23T11:36:26.947Z,6.93
2019-06-23T11:38:56.745Z,7.50
2019-06-23T11:41:26.499Z,7.17
2019-06-23T11:43:56.231Z,7.00
2019-06-23T11:46:25.950Z,20.20
2019-06-23T11:48:55.823Z,8.40
2019-06-23T11:51:25.851Z,7.20
2019-06-23T11:53:55.825Z,7.37
2019-06-23T11:56:25.545Z,6.70
2019-06-23T11:58:55.414Z,6.13
2019-06-23T12:01:25.115Z,6.00
2019-06-23T12:03:54.819Z,6.37
2019-06-23T12:06:24.628Z,5.97
2019-06-23T12:08:54.547Z,9.63
2019-06-23T12:11:24.343Z,7.20
2019-06-23T12:13:54.069Z,7.33
2019-06-23T12:16:25.120Z,6.70
2019-06-23T12:18:54.832Z,6.53
2019-06-23T12:21:24.573Z,6.90
2019-06-23T12:23:54.277Z,7.30
2019-06-23T12:26:24.135Z,5.90
2019-06-23T12:28:53.892Z,5.40
2019-06-23T12:31:23.604Z,5.83
2019-06-23T12:33:53.243Z,6.23
2019-06-23T12:36:22.937Z,9.13
2019-06-23T12:38:52.644Z,7.37
2019-06-23T12:41:24.675Z,5.43
2019-06-23T12:43:53.603Z,5.50
2019-06-23T12:46:23.342Z,6.27
2019-06-23T12:48:52.997Z,5.30
2019-06-23T12:51:22.987Z,6.73
2019-06-23T12:53:53.114Z,6.40
2019-06-23T12:56:22.998Z,7.10
2019-06-23T12:58:52.855Z,6.70
2019-06-23T13:01:22.664Z,5.53
2019-06-23T13:03:52.351Z,6.13
2019-06-23T13:06:22.072Z,6.00
2019-06-23T13:08:51.803Z,6.40
2019-06-23T13:11:21.527Z,7.17
2019-06-23T13:13:51.492Z,6.27
2019-06-23T13:16:25.090Z,5.87
2019-06-23T13:18:54.830Z,5.70
2019-06-23T13:21:24.908Z,6.43
2019-06-23T13:23:57.572Z,6.23
2019-06-23T13:26:27.209Z,6.17
2019-06-23T13:28:56.917Z,5.93
2019-06-23T13:31:26.752Z,6.00
2019-06-23T13:33:56.396Z,6.77
2019-06-23T13:36:27.388Z,6.33
2019-06-23T13:38:57.068Z,5.97
2019-06-23T13:41:26.760Z,8.27
2019-06-23T13:43:56.479Z,5.23
2019-06-23T13:46:26.151Z,5.40
2019-06-23T13:48:55.880Z,5.23
2019-06-23T13:51:25.659Z,6.00
2019-06-23T13:53:55.372Z,7.40
2019-06-23T13:56:25.103Z,6.67
2019-06-23T13:58:54.798Z,6.23
2019-06-23T14:01:24.568Z,6.07
2019-06-23T14:03:54.207Z,5.60
2019-06-23T14:06:23.915Z,5.73
2019-06-23T14:08:53.655Z,5.50
2019-06-23T14:11:23.419Z,5.17
2019-06-23T14:13:53.116Z,4.63
2019-06-23T14:16:25.329Z,5.30
2019-06-23T14:18:54.977Z,5.40
2019-06-23T14:21:24.751Z,6.03
2019-06-23T14:23:54.379Z,5.50
2019-06-23T14:26:25.599Z,5.60
2019-06-23T14:28:55.608Z,5.07
2019-06-23T14:31:25.347Z,4.83
2019-06-23T14:33:55.119Z,4.50
2019-06-23T14:36:24.996Z,4.77
2019-06-23T14:38:57.843Z,4.93
2019-06-23T14:41:29.406Z,4.80
2019-06-23T14:43:59.237Z,4.40
2019-06-23T14:46:28.973Z,5.20
2019-06-23T14:48:58.683Z,4.60
2019-06-23T14:51:28.287Z,5.07
2019-06-23T14:54:00.136Z,5.23
2019-06-23T14:56:29.892Z,4.83
2019-06-23T14:59:00.117Z,4.40
2019-06-23T15:01:29.744Z,4.27
2019-06-23T15:03:59.677Z,6.53
2019-06-23T15:06:29.492Z,4.20
2019-06-23T15:08:59.226Z,4.60
2019-06-23T15:11:43.729Z,4.20
2019-06-23T15:14:00.320Z,4.80
2019-06-23T15:16:30.303Z,3.90
2019-06-23T15:18:59.951Z,4.47
2019-06-23T15:21:29.719Z,4.90
2019-06-23T15:23:59.632Z,10.13
2019-06-23T15:26:29.612Z,4.83
2019-06-23T15:28:59.399Z,4.40
2019-06-23T15:31:29.120Z,3.60
2019-06-23T15:33:58.744Z,4.63
2019-06-23T15:36:30.241Z,4.50
2019-06-23T15:39:00.054Z,4.57
2019-06-23T15:41:29.735Z,4.83
2019-06-23T15:43:59.444Z,5.03
2019-06-23T15:46:29.173Z,5.13
2019-06-23T15:48:59.013Z,4.73
2019-06-23T15:51:41.973Z,5.37
2019-06-23T15:54:00.132Z,4.90
2019-06-23T15:56:30.034Z,5.80
2019-06-23T15:58:59.656Z,4.53
2019-06-23T16:01:29.374Z,3.80
2019-06-23T16:04:01.816Z,6.83
2019-06-23T16:06:30.470Z,4.90
2019-06-23T16:09:00.196Z,4.30
2019-06-23T16:11:29.910Z,4.23
2019-06-23T16:13:59.656Z,5.03
2019-06-23T16:16:29.464Z,4.63
2019-06-23T16:18:59.292Z,4.03
2019-06-23T16:21:29.075Z,4.00
2019-06-23T16:23:58.703Z,3.87
2019-06-23T16:26:28.403Z,3.73
2019-06-23T16:28:58.042Z,3.70
2019-06-23T16:31:27.796Z,3.03
2019-06-23T16:33:57.548Z,3.83
2019-06-23T16:36:27.255Z,3.83
2019-06-23T16:38:57.056Z,4.30
2019-06-23T16:41:26.672Z,3.53
2019-06-23T16:43:56.415Z,4.57
2019-06-23T16:46:26.138Z,3.63
2019-06-23T16:48:56.061Z,3.67
2019-06-23T16:51:29.029Z,4.20
2019-06-23T16:54:19.804Z,4.03
2019-06-23T16:56:49.557Z,5.57
2019-06-23T16:59:19.260Z,4.10
2019-06-23T17:01:48.981Z,4.23
2019-06-23T17:04:18.994Z,3.50
2019-06-23T17:06:48.642Z,3.13
2019-06-23T17:09:18.358Z,3.70
2019-06-23T17:11:48.317Z,3.33
2019-06-23T17:14:18.205Z,3.80
2019-06-23T17:16:48.084Z,6.13
2019-06-23T17:19:17.828Z,5.57
2019-06-23T17:21:47.465Z,3.40
2019-06-23T17:24:17.112Z,3.93
2019-06-23T17:26:46.864Z,3.07
2019-06-23T17:29:16.558Z,3.60
2019-06-23T17:31:46.267Z,4.57
2019-06-23T17:34:15.979Z,4.90
2019-06-23T17:36:45.794Z,3.90
2019-06-23T17:39:15.515Z,4.30
2019-06-23T17:41:45.222Z,3.40
2019-06-23T17:44:14.915Z,3.47
2019-06-23T17:46:44.599Z,2.93
2019-06-23T17:49:14.301Z,3.47
2019-06-23T17:51:44.623Z,4.10
2019-06-23T17:54:14.415Z,3.13
2019-06-23T17:56:44.064Z,3.40
2019-06-23T17:59:13.695Z,3.50
2019-06-23T18:01:43.401Z,4.87
2019-06-23T18:04:13.141Z,4.10
2019-06-23T18:06:46.210Z,4.63
2019-06-23T18:09:14.629Z,4.07
2019-06-23T18:11:44.264Z,5.23
2019-06-23T18:14:13.932Z,4.10
2019-06-23T18:16:43.611Z,6.03
2019-06-23T18:19:13.349Z,4.03
2019-06-23T18:21:43.059Z,4.67
2019-06-23T18:24:13.966Z,4.13
2019-06-23T18:26:43.663Z,5.27
2019-06-23T18:29:13.376Z,5.50
2019-06-23T18:31:43.171Z,4.70
2019-06-23T18:34:12.946Z,3.87
2019-06-23T18:36:42.592Z,3.57
2019-06-23T18:39:12.382Z,3.80
2019-06-23T18:41:42.181Z,3.93
2019-06-23T18:44:14.353Z,2.93
2019-06-23T18:46:43.314Z,3.00
2019-06-23T18:49:16.994Z,3.87
2019-06-23T18:51:47.103Z,3.30
2019-06-23T18:54:16.859Z,6.00
2019-06-23T18:56:46.640Z,3.53
2019-06-23T18:59:16.471Z,3.40
2019-06-23T19:01:47.268Z,2.90
2019-06-23T19:04:17.067Z,3.07
2019-06-23T19:06:46.763Z,3.50
2019-06-23T19:09:16.496Z,2.90
2019-06-23T19:11:46.356Z,3.67
2019-06-23T19:14:16.227Z,3.40
2019-06-23T19:16:45.984Z,3.47
2019-06-23T19:19:15.646Z,3.50
2019-06-23T19:21:45.373Z,3.03
2019-06-23T19:24:15.053Z,2.90
2019-06-23T19:26:44.812Z,3.80
2019-06-23T19:29:14.591Z,3.70
2019-06-23T19:31:44.256Z,3.70
2019-06-23T19:34:14.119Z,3.67
2019-06-23T19:36:43.884Z,3.20
2019-06-23T19:39:16.349Z,3.47
2019-06-23T19:41:46.147Z,3.77
2019-06-23T19:44:17.711Z,3.10
2019-06-23T19:46:48.473Z,3.80
2019-06-23T19:49:18.144Z,5.30
2019-06-23T19:51:47.920Z,3.90
2019-06-23T19:54:17.701Z,6.70
2019-06-23T19:56:47.449Z,4.60
2019-06-23T19:59:17.235Z,4.47
2019-06-23T20:01:46.956Z,3.80
2019-06-23T20:04:16.619Z,3.30
2019-06-23T20:06:48.635Z,3.80
2019-06-23T20:09:18.406Z,3.13
2019-06-23T20:11:48.232Z,3.77
2019-06-23T20:14:27.133Z,2.90
2019-06-23T20:16:49.536Z,3.97
2019-06-23T20:19:19.326Z,7.90
2019-06-23T20:21:49.128Z,7.07
2019-06-23T20:24:18.780Z,4.17
2019-06-23T20:26:48.747Z,3.90
2019-06-23T20:29:18.709Z,3.80
2019-06-23T20:31:48.488Z,4.73
2019-06-23T20:34:19.834Z,4.77
2019-06-23T20:36:49.573Z,4.30
2019-06-23T20:39:19.607Z,4.03
2019-06-23T20:41:49.282Z,3.97
2019-06-23T20:44:19.116Z,5.10
2019-06-23T20:46:48.817Z,4.47
2019-06-23T20:49:22.149Z,3.90
2019-06-23T20:51:52.121Z,4.80
2019-06-23T20:54:21.892Z,4.13
2019-06-23T20:56:52.811Z,5.10
2019-06-23T20:59:24.557Z,5.10
2019-06-23T21:01:54.238Z,6.00
2019-06-23T21:04:24.011Z,4.97
2019-06-23T21:06:54.036Z,4.00
2019-06-23T21:09:23.789Z,4.33
2019-06-23T21:11:53.583Z,4.87
2019-06-23T21:14:23.385Z,4.17
2019-06-23T21:16:53.065Z,5.60
2019-06-23T21:19:26.867Z,4.93
2019-06-23T21:21:59.336Z,6.43
2019-06-23T21:24:28.959Z,4.93
2019-06-23T21:26:58.753Z,4.13
2019-06-23T21:29:28.693Z,5.07
2019-06-23T21:31:58.376Z,4.83
2019-06-23T21:34:28.096Z,4.70
2019-06-23T21:36:57.766Z,4.50
2019-06-23T21:39:27.414Z,6.57
2019-06-23T21:41:57.578Z,5.67
2019-06-23T21:44:27.259Z,4.60
2019-06-23T21:46:57.048Z,4.57
2019-06-23T21:49:26.759Z,7.13
2019-06-23T21:51:56.462Z,4.10
2019-06-23T21:54:28.520Z,4.63
2019-06-23T21:56:58.295Z,4.90
2019-06-23T21:59:27.935Z,5.30
2019-06-23T22:01:57.800Z,6.70
2019-06-23T22:04:27.515Z,8.70
2019-06-23T22:07:16.435Z,4.70
2019-06-23T22:09:46.232Z,4.47
2019-06-23T22:12:19.875Z,4.80
2019-06-23T22:14:49.575Z,4.50
2019-06-23T22:17:19.375Z,4.20
2019-06-23T22:19:49.019Z,4.50
2019-06-23T22:22:18.875Z,6.57
2019-06-23T22:24:52.251Z,5.03
2019-06-23T22:27:24.183Z,6.20
2019-06-23T22:29:57.928Z,5.87
2019-06-23T22:32:27.615Z,4.87
2019-06-23T22:34:59.561Z,4.77
2019-06-23T22:37:29.096Z,5.93
2019-06-23T22:39:58.727Z,7.60
2019-06-23T22:42:28.447Z,7.13
2019-06-23T22:44:58.159Z,4.70
2019-06-23T22:47:27.858Z,5.53
2019-06-23T22:49:57.676Z,5.27
2019-06-23T22:52:27.279Z,4.53
2019-06-23T22:54:57.008Z,4.00
2019-06-23T22:57:26.797Z,4.90
2019-06-23T23:00:15.879Z,4.37
2019-06-23T23:02:46.776Z,4.43
2019-06-23T23:05:17.598Z,4.70
2019-06-23T23:07:47.331Z,5.27
2019-06-23T23:10:17.546Z,4.27
2019-06-23T23:12:47.235Z,4.07
2019-06-23T23:15:17.403Z,5.53
2019-06-23T23:17:48.910Z,4.93
2019-06-23T23:20:19.271Z,4.30
2019-06-23T23:22:50.841Z,4.10
2019-06-23T23:25:23.642Z,5.00
2019-06-23T23:27:54.407Z,4.80
2019-06-23T23:33:12.794Z,4.67
2019-06-23T23:35:42.455Z,4.50
2019-06-23T23:38:12.156Z,5.97
2019-06-23T23:40:41.840Z,4.53
2019-06-23T23:43:13.046Z,5.63
2019-06-23T23:45:44.783Z,5.20
2019-06-23T23:48:14.091Z,4.20
2019-06-23T23:50:43.777Z,7.50
2019-06-23T23:53:13.553Z,4.50
2019-06-23T23:55:48.767Z,6.20
2019-06-23T23:58:20.292Z,4.07
